sensor_id;sensor_type;location;lat;lon;timestamp;P1;durP1;ratioP1;P2;durP2;ratioP2
14007;SDS011;61651;45.508;12.232;2023-07-31T00:01:48;4.18;;;3.78;;
14007;SDS011;61651;45.508;12.232;2023-07-31T00:04:50;5.05;;;4.53;;
14007;SDS011;61651;45.508;12.232;2023-07-31T00:07:52;5.30;;;4.60;;
14007;SDS011;61651;45.508;12.232;2023-07-31T00:10:54;5.43;;;4.95;;
14007;SDS011;61651;45.508;12.232;2023-07-31T00:13:57;5.63;;;5.22;;
14007;SDS011;61651;45.508;12.232;2023-07-31T00:17:01;7.13;;;5.22;;
14007;SDS011;61651;45.508;12.232;2023-07-31T00:20:03;6.43;;;5.85;;
14007;SDS011;61651;45.508;12.232;2023-07-31T00:23:05;5.57;;;5.07;;
14007;SDS011;61651;45.508;12.232;2023-07-31T00:26:07;5.68;;;5.25;;
14007;SDS011;61651;45.508;12.232;2023-07-31T00:29:09;6.18;;;5.57;;
14007;SDS011;61651;45.508;12.232;2023-07-31T00:32:13;6.22;;;5.72;;
14007;SDS011;61651;45.508;12.232;2023-07-31T00:35:15;5.82;;;5.35;;
14007;SDS011;61651;45.508;12.232;2023-07-31T00:38:17;6.97;;;5.13;;
14007;SDS011;61651;45.508;12.232;2023-07-31T00:41:19;5.93;;;5.43;;
14007;SDS011;61651;45.508;12.232;2023-07-31T00:44:21;6.28;;;5.70;;
14007;SDS011;61651;45.508;12.232;2023-07-31T00:47:24;6.65;;;6.15;;
14007;SDS011;61651;45.508;12.232;2023-07-31T00:50:27;6.80;;;5.90;;
14007;SDS011;61651;45.508;12.232;2023-07-31T00:53:29;8.10;;;7.35;;
14007;SDS011;61651;45.508;12.232;2023-07-31T00:56:32;7.07;;;6.38;;
14007;SDS011;61651;45.508;12.232;2023-07-31T00:59:34;7.30;;;6.60;;
14007;SDS011;61651;45.508;12.232;2023-07-31T01:02:38;7.72;;;7.13;;
14007;SDS011;61651;45.508;12.232;2023-07-31T01:05:43;7.82;;;7.22;;
14007;SDS011;61651;45.508;12.232;2023-07-31T01:08:54;7.35;;;6.82;;
14007;SDS011;61651;45.508;12.232;2023-07-31T01:12:01;8.02;;;7.30;;
14007;SDS011;61651;45.508;12.232;2023-07-31T01:15:04;8.45;;;7.85;;
14007;SDS011;61651;45.508;12.232;2023-07-31T01:18:12;8.25;;;7.65;;
14007;SDS011;61651;45.508;12.232;2023-07-31T01:21:19;8.35;;;7.60;;
14007;SDS011;61651;45.508;12.232;2023-07-31T01:24:39;8.57;;;7.75;;
14007;SDS011;61651;45.508;12.232;2023-07-31T01:27:59;8.93;;;8.13;;
14007;SDS011;61651;45.508;12.232;2023-07-31T01:31:04;8.65;;;7.75;;
14007;SDS011;61651;45.508;12.232;2023-07-31T01:34:11;8.50;;;7.68;;
14007;SDS011;61651;45.508;12.232;2023-07-31T01:37:15;8.65;;;8.05;;
14007;SDS011;61651;45.508;12.232;2023-07-31T01:40:17;8.10;;;7.50;;
14007;SDS011;61651;45.508;12.232;2023-07-31T01:43:20;8.68;;;7.88;;
14007;SDS011;61651;45.508;12.232;2023-07-31T01:46:23;7.47;;;6.88;;
14007;SDS011;61651;45.508;12.232;2023-07-31T01:49:25;7.78;;;6.97;;
14007;SDS011;61651;45.508;12.232;2023-07-31T01:52:27;7.20;;;6.60;;
14007;SDS011;61651;45.508;12.232;2023-07-31T01:55:30;11.27;;;7.00;;
14007;SDS011;61651;45.508;12.232;2023-07-31T01:58:33;7.45;;;6.85;;
14007;SDS011;61651;45.508;12.232;2023-07-31T02:01:35;7.57;;;6.97;;
14007;SDS011;61651;45.508;12.232;2023-07-31T02:04:37;7.03;;;6.47;;
14007;SDS011;61651;45.508;12.232;2023-07-31T02:07:39;7.97;;;7.38;;
14007;SDS011;61651;45.508;12.232;2023-07-31T02:10:41;7.63;;;6.90;;
14007;SDS011;61651;45.508;12.232;2023-07-31T02:13:45;7.25;;;6.75;;
14007;SDS011;61651;45.508;12.232;2023-07-31T02:16:47;7.25;;;6.65;;
14007;SDS011;61651;45.508;12.232;2023-07-31T02:19:49;7.70;;;6.97;;
14007;SDS011;61651;45.508;12.232;2023-07-31T02:22:51;6.70;;;6.22;;
14007;SDS011;61651;45.508;12.232;2023-07-31T02:25:53;6.78;;;6.18;;
14007;SDS011;61651;45.508;12.232;2023-07-31T02:28:57;7.35;;;6.75;;
14007;SDS011;61651;45.508;12.232;2023-07-31T02:31:59;7.80;;;6.57;;
14007;SDS011;61651;45.508;12.232;2023-07-31T02:35:01;7.03;;;6.43;;
14007;SDS011;61651;45.508;12.232;2023-07-31T02:38:03;6.60;;;6.10;;
14007;SDS011;61651;45.508;12.232;2023-07-31T02:41:05;6.45;;;5.72;;
14007;SDS011;61651;45.508;12.232;2023-07-31T02:44:09;6.95;;;6.35;;
14007;SDS011;61651;45.508;12.232;2023-07-31T02:47:14;6.00;;;5.40;;
14007;SDS011;61651;45.508;12.232;2023-07-31T02:50:16;6.47;;;5.88;;
14007;SDS011;61651;45.508;12.232;2023-07-31T02:53:18;6.18;;;5.68;;
14007;SDS011;61651;45.508;12.232;2023-07-31T02:56:20;5.82;;;5.38;;
14007;SDS011;61651;45.508;12.232;2023-07-31T02:59:23;6.30;;;5.70;;
14007;SDS011;61651;45.508;12.232;2023-07-31T03:02:26;6.40;;;5.40;;
14007;SDS011;61651;45.508;12.232;2023-07-31T03:05:28;6.18;;;5.57;;
14007;SDS011;61651;45.508;12.232;2023-07-31T03:08:30;6.82;;;5.22;;
14007;SDS011;61651;45.508;12.232;2023-07-31T03:11:32;5.30;;;4.55;;
14007;SDS011;61651;45.508;12.232;2023-07-31T03:14:35;5.72;;;5.22;;
14007;SDS011;61651;45.508;12.232;2023-07-31T03:17:37;5.60;;;5.20;;
14007;SDS011;61651;45.508;12.232;2023-07-31T03:20:41;5.97;;;5.47;;
14007;SDS011;61651;45.508;12.232;2023-07-31T03:23:44;5.15;;;4.65;;
14007;SDS011;61651;45.508;12.232;2023-07-31T03:26:46;7.20;;;5.30;;
14007;SDS011;61651;45.508;12.232;2023-07-31T03:29:49;5.13;;;4.72;;
14007;SDS011;61651;45.508;12.232;2023-07-31T03:32:52;6.57;;;4.95;;
14007;SDS011;61651;45.508;12.232;2023-07-31T03:35:54;6.57;;;4.85;;
14007;SDS011;61651;45.508;12.232;2023-07-31T03:38:56;5.07;;;4.70;;
14007;SDS011;61651;45.508;12.232;2023-07-31T03:41:58;4.90;;;4.50;;
14007;SDS011;61651;45.508;12.232;2023-07-31T03:45:01;4.93;;;4.57;;
14007;SDS011;61651;45.508;12.232;2023-07-31T03:48:03;5.45;;;4.93;;
14007;SDS011;61651;45.508;12.232;2023-07-31T03:51:06;5.45;;;4.78;;
14007;SDS011;61651;45.508;12.232;2023-07-31T03:54:08;4.53;;;4.13;;
14007;SDS011;61651;45.508;12.232;2023-07-31T03:57:10;5.22;;;4.72;;
14007;SDS011;61651;45.508;12.232;2023-07-31T04:00:13;4.20;;;3.90;;
14007;SDS011;61651;45.508;12.232;2023-07-31T04:03:16;4.72;;;3.90;;
14007;SDS011;61651;45.508;12.232;2023-07-31T04:06:18;5.47;;;3.90;;
14007;SDS011;61651;45.508;12.232;2023-07-31T04:09:20;5.30;;;4.20;;
14007;SDS011;61651;45.508;12.232;2023-07-31T04:12:22;4.47;;;4.13;;
14007;SDS011;61651;45.508;12.232;2023-07-31T04:15:25;4.60;;;4.20;;
14007;SDS011;61651;45.508;12.232;2023-07-31T04:18:27;4.40;;;4.10;;
14007;SDS011;61651;45.508;12.232;2023-07-31T04:21:31;4.03;;;3.72;;
14007;SDS011;61651;45.508;12.232;2023-07-31T04:24:33;4.30;;;3.85;;
14007;SDS011;61651;45.508;12.232;2023-07-31T04:27:35;4.00;;;3.70;;
14007;SDS011;61651;45.508;12.232;2023-07-31T04:30:38;4.07;;;3.78;;
14007;SDS011;61651;45.508;12.232;2023-07-31T04:33:40;4.32;;;3.95;;
14007;SDS011;61651;45.508;12.232;2023-07-31T04:36:42;4.07;;;3.78;;
14007;SDS011;61651;45.508;12.232;2023-07-31T04:39:44;4.32;;;4.00;;
14007;SDS011;61651;45.508;12.232;2023-07-31T04:42:46;4.15;;;3.85;;
14007;SDS011;61651;45.508;12.232;2023-07-31T04:45:50;4.63;;;4.20;;
14007;SDS011;61651;45.508;12.232;2023-07-31T04:48:54;3.55;;;3.35;;
14007;SDS011;61651;45.508;12.232;2023-07-31T04:51:56;3.80;;;3.30;;
14007;SDS011;61651;45.508;12.232;2023-07-31T04:54:58;3.42;;;3.13;;
14007;SDS011;61651;45.508;12.232;2023-07-31T04:58:00;3.53;;;3.15;;
14007;SDS011;61651;45.508;12.232;2023-07-31T05:01:03;3.40;;;3.10;;
14007;SDS011;61651;45.508;12.232;2023-07-31T05:04:05;3.22;;;2.92;;
14007;SDS011;61651;45.508;12.232;2023-07-31T05:07:07;3.22;;;2.92;;
14007;SDS011;61651;45.508;12.232;2023-07-31T05:10:09;5.25;;;2.67;;
14007;SDS011;61651;45.508;12.232;2023-07-31T05:13:11;2.90;;;2.47;;
14007;SDS011;61651;45.508;12.232;2023-07-31T05:16:15;2.88;;;2.67;;
14007;SDS011;61651;45.508;12.232;2023-07-31T05:19:17;3.08;;;2.60;;
14007;SDS011;61651;45.508;12.232;2023-07-31T05:22:18;2.72;;;2.53;;
14007;SDS011;61651;45.508;12.232;2023-07-31T05:25:20;2.75;;;2.30;;
14007;SDS011;61651;45.508;12.232;2023-07-31T05:28:22;2.30;;;2.10;;
14007;SDS011;61651;45.508;12.232;2023-07-31T05:31:26;4.63;;;2.33;;
14007;SDS011;61651;45.508;12.232;2023-07-31T05:34:28;2.65;;;2.45;;
14007;SDS011;61651;45.508;12.232;2023-07-31T05:37:30;4.72;;;2.42;;
14007;SDS011;61651;45.508;12.232;2023-07-31T05:40:32;2.50;;;2.30;;
14007;SDS011;61651;45.508;12.232;2023-07-31T05:43:34;3.78;;;2.25;;
14007;SDS011;61651;45.508;12.232;2023-07-31T05:46:38;3.05;;;2.30;;
14007;SDS011;61651;45.508;12.232;2023-07-31T05:49:40;3.35;;;2.50;;
14007;SDS011;61651;45.508;12.232;2023-07-31T05:52:42;2.50;;;2.28;;
14007;SDS011;61651;45.508;12.232;2023-07-31T05:55:44;4.55;;;2.33;;
14007;SDS011;61651;45.508;12.232;2023-07-31T05:58:46;2.45;;;2.25;;
14007;SDS011;61651;45.508;12.232;2023-07-31T06:01:50;2.30;;;2.10;;
14007;SDS011;61651;45.508;12.232;2023-07-31T06:04:52;4.25;;;2.05;;
14007;SDS011;61651;45.508;12.232;2023-07-31T06:07:54;2.45;;;2.33;;
14007;SDS011;61651;45.508;12.232;2023-07-31T06:10:56;2.42;;;2.00;;
14007;SDS011;61651;45.508;12.232;2023-07-31T06:13:58;2.33;;;2.10;;
14007;SDS011;61651;45.508;12.232;2023-07-31T06:17:01;3.33;;;1.95;;
14007;SDS011;61651;45.508;12.232;2023-07-31T06:20:05;3.60;;;2.13;;
14007;SDS011;61651;45.508;12.232;2023-07-31T06:23:08;3.00;;;2.10;;
14007;SDS011;61651;45.508;12.232;2023-07-31T06:26:10;3.05;;;2.30;;
14007;SDS011;61651;45.508;12.232;2023-07-31T06:29:12;3.40;;;2.20;;
14007;SDS011;61651;45.508;12.232;2023-07-31T06:32:15;3.13;;;2.42;;
14007;SDS011;61651;45.508;12.232;2023-07-31T06:35:17;2.05;;;1.88;;
14007;SDS011;61651;45.508;12.232;2023-07-31T06:38:21;2.63;;;2.40;;
14007;SDS011;61651;45.508;12.232;2023-07-31T06:41:25;2.25;;;2.05;;
14007;SDS011;61651;45.508;12.232;2023-07-31T06:44:27;2.10;;;1.98;;
14007;SDS011;61651;45.508;12.232;2023-07-31T06:47:31;2.78;;;2.08;;
14007;SDS011;61651;45.508;12.232;2023-07-31T06:50:33;3.97;;;2.05;;
14007;SDS011;61651;45.508;12.232;2023-07-31T06:53:37;2.40;;;2.10;;
14007;SDS011;61651;45.508;12.232;2023-07-31T06:56:39;2.20;;;2.00;;
14007;SDS011;61651;45.508;12.232;2023-07-31T06:59:41;2.40;;;2.20;;
14007;SDS011;61651;45.508;12.232;2023-07-31T07:02:44;2.45;;;2.28;;
14007;SDS011;61651;45.508;12.232;2023-07-31T07:05:47;2.30;;;2.10;;
14007;SDS011;61651;45.508;12.232;2023-07-31T07:08:49;2.38;;;2.17;;
14007;SDS011;61651;45.508;12.232;2023-07-31T07:11:51;2.17;;;1.98;;
14007;SDS011;61651;45.508;12.232;2023-07-31T07:14:53;3.53;;;2.28;;
14007;SDS011;61651;45.508;12.232;2023-07-31T07:17:57;2.78;;;2.22;;
14007;SDS011;61651;45.508;12.232;2023-07-31T07:20:59;3.35;;;2.42;;
14007;SDS011;61651;45.508;12.232;2023-07-31T07:24:02;3.30;;;2.58;;
14007;SDS011;61651;45.508;12.232;2023-07-31T07:27:05;2.50;;;2.30;;
14007;SDS011;61651;45.508;12.232;2023-07-31T07:30:07;2.50;;;2.30;;
14007;SDS011;61651;45.508;12.232;2023-07-31T07:33:11;3.33;;;2.28;;
14007;SDS011;61651;45.508;12.232;2023-07-31T07:36:13;2.85;;;2.22;;
14007;SDS011;61651;45.508;12.232;2023-07-31T07:39:15;3.22;;;2.33;;
14007;SDS011;61651;45.508;12.232;2023-07-31T07:42:18;4.18;;;2.42;;
14007;SDS011;61651;45.508;12.232;2023-07-31T07:45:20;2.38;;;2.00;;
14007;SDS011;61651;45.508;12.232;2023-07-31T07:48:23;2.90;;;2.47;;
14007;SDS011;61651;45.508;12.232;2023-07-31T07:51:27;3.00;;;2.42;;
14007;SDS011;61651;45.508;12.232;2023-07-31T07:54:31;2.58;;;2.38;;
14007;SDS011;61651;45.508;12.232;2023-07-31T07:57:33;3.55;;;3.22;;
14007;SDS011;61651;45.508;12.232;2023-07-31T08:00:36;2.20;;;2.00;;
14007;SDS011;61651;45.508;12.232;2023-07-31T08:03:39;3.10;;;2.42;;
14007;SDS011;61651;45.508;12.232;2023-07-31T08:06:41;2.90;;;2.28;;
14007;SDS011;61651;45.508;12.232;2023-07-31T08:09:43;3.40;;;1.70;;
14007;SDS011;61651;45.508;12.232;2023-07-31T08:12:45;2.33;;;2.13;;
14007;SDS011;61651;45.508;12.232;2023-07-31T08:15:47;2.67;;;2.47;;
14007;SDS011;61651;45.508;12.232;2023-07-31T08:18:51;2.65;;;2.17;;
14007;SDS011;61651;45.508;12.232;2023-07-31T08:21:53;5.60;;;2.33;;
14007;SDS011;61651;45.508;12.232;2023-07-31T08:24:55;2.53;;;2.33;;
14007;SDS011;61651;45.508;12.232;2023-07-31T08:27:57;2.45;;;1.95;;
14007;SDS011;61651;45.508;12.232;2023-07-31T08:30:59;2.67;;;2.33;;
14007;SDS011;61651;45.508;12.232;2023-07-31T08:34:02;2.45;;;2.25;;
14007;SDS011;61651;45.508;12.232;2023-07-31T08:37:05;2.40;;;1.92;;
14007;SDS011;61651;45.508;12.232;2023-07-31T08:40:07;2.50;;;2.30;;
14007;SDS011;61651;45.508;12.232;2023-07-31T08:43:10;3.63;;;2.53;;
14007;SDS011;61651;45.508;12.232;2023-07-31T08:46:12;3.45;;;2.20;;
14007;SDS011;61651;45.508;12.232;2023-07-31T08:49:16;2.20;;;2.00;;
14007;SDS011;61651;45.508;12.232;2023-07-31T08:52:21;3.58;;;2.42;;
14007;SDS011;61651;45.508;12.232;2023-07-31T08:55:23;2.80;;;2.33;;
14007;SDS011;61651;45.508;12.232;2023-07-31T08:58:26;2.75;;;2.13;;
14007;SDS011;61651;45.508;12.232;2023-07-31T09:01:33;3.05;;;2.17;;
14007;SDS011;61651;45.508;12.232;2023-07-31T09:04:40;2.40;;;2.20;;
14007;SDS011;61651;45.508;12.232;2023-07-31T09:07:42;2.63;;;2.25;;
14007;SDS011;61651;45.508;12.232;2023-07-31T09:10:47;3.13;;;2.53;;
14007;SDS011;61651;45.508;12.232;2023-07-31T09:13:50;2.70;;;2.50;;
14007;SDS011;61651;45.508;12.232;2023-07-31T09:16:54;2.47;;;2.28;;
14007;SDS011;61651;45.508;12.232;2023-07-31T09:20:00;2.95;;;2.17;;
14007;SDS011;61651;45.508;12.232;2023-07-31T09:23:15;2.88;;;2.17;;
14007;SDS011;61651;45.508;12.232;2023-07-31T09:26:28;3.40;;;2.20;;
14007;SDS011;61651;45.508;12.232;2023-07-31T09:29:31;2.35;;;2.00;;
14007;SDS011;61651;45.508;12.232;2023-07-31T09:32:33;2.55;;;2.35;;
14007;SDS011;61651;45.508;12.232;2023-07-31T09:35:36;2.65;;;1.90;;
14007;SDS011;61651;45.508;12.232;2023-07-31T09:38:40;2.20;;;2.10;;
14007;SDS011;61651;45.508;12.232;2023-07-31T09:41:43;2.35;;;2.15;;
14007;SDS011;61651;45.508;12.232;2023-07-31T09:44:46;2.38;;;2.17;;
14007;SDS011;61651;45.508;12.232;2023-07-31T09:47:48;2.17;;;2.08;;
14007;SDS011;61651;45.508;12.232;2023-07-31T09:50:52;2.72;;;1.73;;
14007;SDS011;61651;45.508;12.232;2023-07-31T09:53:54;3.05;;;2.20;;
14007;SDS011;61651;45.508;12.232;2023-07-31T09:56:56;2.22;;;2.10;;
14007;SDS011;61651;45.508;12.232;2023-07-31T10:00:01;2.00;;;1.90;;
14007;SDS011;61651;45.508;12.232;2023-07-31T10:03:05;2.17;;;2.00;;
14007;SDS011;61651;45.508;12.232;2023-07-31T10:06:09;4.10;;;2.35;;
14007;SDS011;61651;45.508;12.232;2023-07-31T10:09:12;2.47;;;1.90;;
14007;SDS011;61651;45.508;12.232;2023-07-31T10:12:17;2.25;;;2.05;;
14007;SDS011;61651;45.508;12.232;2023-07-31T10:15:23;3.47;;;2.38;;
14007;SDS011;61651;45.508;12.232;2023-07-31T10:18:26;2.63;;;2.00;;
14007;SDS011;61651;45.508;12.232;2023-07-31T10:21:31;3.15;;;2.92;;
14007;SDS011;61651;45.508;12.232;2023-07-31T10:24:35;2.85;;;2.10;;
14007;SDS011;61651;45.508;12.232;2023-07-31T10:27:38;2.20;;;2.00;;
14007;SDS011;61651;45.508;12.232;2023-07-31T10:30:40;2.40;;;2.13;;
14007;SDS011;61651;45.508;12.232;2023-07-31T10:33:43;2.95;;;2.17;;
14007;SDS011;61651;45.508;12.232;2023-07-31T10:36:46;2.70;;;2.50;;
14007;SDS011;61651;45.508;12.232;2023-07-31T10:39:59;3.33;;;1.80;;
14007;SDS011;61651;45.508;12.232;2023-07-31T10:43:02;1.85;;;1.75;;
14007;SDS011;61651;45.508;12.232;2023-07-31T10:46:08;2.13;;;1.92;;
14007;SDS011;61651;45.508;12.232;2023-07-31T10:49:10;2.58;;;2.35;;
14007;SDS011;61651;45.508;12.232;2023-07-31T10:52:24;4.32;;;1.83;;
14007;SDS011;61651;45.508;12.232;2023-07-31T10:55:31;1.83;;;1.73;;
14007;SDS011;61651;45.508;12.232;2023-07-31T10:58:35;2.38;;;2.17;;
14007;SDS011;61651;45.508;12.232;2023-07-31T11:01:49;2.15;;;1.95;;
14007;SDS011;61651;45.508;12.232;2023-07-31T11:05:07;3.28;;;2.25;;
14007;SDS011;61651;45.508;12.232;2023-07-31T11:08:12;3.83;;;1.80;;
14007;SDS011;61651;45.508;12.232;2023-07-31T11:11:19;1.70;;;1.60;;
14007;SDS011;61651;45.508;12.232;2023-07-31T11:14:22;2.03;;;1.92;;
14007;SDS011;61651;45.508;12.232;2023-07-31T11:17:24;2.05;;;1.63;;
14007;SDS011;61651;45.508;12.232;2023-07-31T11:20:28;3.45;;;1.77;;
14007;SDS011;61651;45.508;12.232;2023-07-31T11:23:32;2.63;;;1.88;;
14007;SDS011;61651;45.508;12.232;2023-07-31T11:26:34;2.55;;;1.92;;
14007;SDS011;61651;45.508;12.232;2023-07-31T11:29:36;2.33;;;1.77;;
14007;SDS011;61651;45.508;12.232;2023-07-31T11:32:38;1.70;;;1.60;;
14007;SDS011;61651;45.508;12.232;2023-07-31T11:35:42;2.92;;;1.95;;
14007;SDS011;61651;45.508;12.232;2023-07-31T11:38:47;3.38;;;1.80;;
14007;SDS011;61651;45.508;12.232;2023-07-31T11:41:49;1.73;;;1.63;;
14007;SDS011;61651;45.508;12.232;2023-07-31T11:44:51;2.55;;;1.83;;
14007;SDS011;61651;45.508;12.232;2023-07-31T11:47:55;2.00;;;1.80;;
14007;SDS011;61651;45.508;12.232;2023-07-31T11:50:57;2.80;;;1.88;;
14007;SDS011;61651;45.508;12.232;2023-07-31T11:54:03;3.75;;;2.10;;
14007;SDS011;61651;45.508;12.232;2023-07-31T11:57:05;2.03;;;1.73;;
14007;SDS011;61651;45.508;12.232;2023-07-31T12:00:09;1.92;;;1.60;;
14007;SDS011;61651;45.508;12.232;2023-07-31T12:03:13;2.08;;;1.88;;
14007;SDS011;61651;45.508;12.232;2023-07-31T12:06:16;1.80;;;1.70;;
14007;SDS011;61651;45.508;12.232;2023-07-31T12:09:22;1.98;;;1.77;;
14007;SDS011;61651;45.508;12.232;2023-07-31T12:12:25;2.75;;;1.70;;
14007;SDS011;61651;45.508;12.232;2023-07-31T12:15:34;3.20;;;2.00;;
14007;SDS011;61651;45.508;12.232;2023-07-31T12:18:37;2.13;;;1.90;;
14007;SDS011;61651;45.508;12.232;2023-07-31T12:21:40;1.52;;;1.42;;
14007;SDS011;61651;45.508;12.232;2023-07-31T12:24:43;2.30;;;1.80;;
14007;SDS011;61651;45.508;12.232;2023-07-31T12:27:46;2.28;;;1.70;;
14007;SDS011;61651;45.508;12.232;2023-07-31T12:30:48;1.73;;;1.60;;
14007;SDS011;61651;45.508;12.232;2023-07-31T12:33:50;1.85;;;1.63;;
14007;SDS011;61651;45.508;12.232;2023-07-31T12:36:53;2.00;;;1.80;;
14007;SDS011;61651;45.508;12.232;2023-07-31T12:39:56;1.67;;;1.52;;
14007;SDS011;61651;45.508;12.232;2023-07-31T12:43:03;2.05;;;1.90;;
14007;SDS011;61651;45.508;12.232;2023-07-31T12:46:06;2.75;;;1.67;;
14007;SDS011;61651;45.508;12.232;2023-07-31T12:49:09;1.98;;;1.77;;
14007;SDS011;61651;45.508;12.232;2023-07-31T12:52:11;1.80;;;1.70;;
14007;SDS011;61651;45.508;12.232;2023-07-31T12:55:14;1.88;;;1.73;;
14007;SDS011;61651;45.508;12.232;2023-07-31T12:58:17;1.90;;;1.77;;
14007;SDS011;61651;45.508;12.232;2023-07-31T13:01:19;1.60;;;1.50;;
14007;SDS011;61651;45.508;12.232;2023-07-31T13:04:23;2.10;;;1.80;;
14007;SDS011;61651;45.508;12.232;2023-07-31T13:07:25;2.55;;;1.88;;
14007;SDS011;61651;45.508;12.232;2023-07-31T13:10:29;1.83;;;1.73;;
14007;SDS011;61651;45.508;12.232;2023-07-31T13:13:31;3.03;;;1.80;;
14007;SDS011;61651;45.508;12.232;2023-07-31T13:16:33;2.80;;;1.80;;
14007;SDS011;61651;45.508;12.232;2023-07-31T13:19:35;3.08;;;1.90;;
14007;SDS011;61651;45.508;12.232;2023-07-31T13:22:37;2.28;;;1.70;;
14007;SDS011;61651;45.508;12.232;2023-07-31T13:29:04;1.92;;;1.80;;
14007;SDS011;61651;45.508;12.232;2023-07-31T13:32:06;1.70;;;1.60;;
14007;SDS011;61651;45.508;12.232;2023-07-31T13:35:08;2.00;;;1.80;;
14007;SDS011;61651;45.508;12.232;2023-07-31T13:38:11;1.92;;;1.65;;
14007;SDS011;61651;45.508;12.232;2023-07-31T13:41:16;2.10;;;2.00;;
14007;SDS011;61651;45.508;12.232;2023-07-31T13:44:18;4.00;;;1.80;;
14007;SDS011;61651;45.508;12.232;2023-07-31T13:47:20;2.38;;;1.70;;
14007;SDS011;61651;45.508;12.232;2023-07-31T13:50:23;1.98;;;1.70;;
14007;SDS011;61651;45.508;12.232;2023-07-31T13:53:25;1.63;;;1.52;;
14007;SDS011;61651;45.508;12.232;2023-07-31T13:56:28;1.50;;;1.40;;
14007;SDS011;61651;45.508;12.232;2023-07-31T13:59:30;1.60;;;1.50;;
14007;SDS011;61651;45.508;12.232;2023-07-31T14:02:32;1.98;;;1.52;;
14007;SDS011;61651;45.508;12.232;2023-07-31T14:05:34;1.55;;;1.45;;
14007;SDS011;61651;45.508;12.232;2023-07-31T14:08:36;2.20;;;1.33;;
14007;SDS011;61651;45.508;12.232;2023-07-31T14:11:39;1.70;;;1.60;;
14007;SDS011;61651;45.508;12.232;2023-07-31T14:14:42;1.63;;;1.42;;
14007;SDS011;61651;45.508;12.232;2023-07-31T14:17:43;1.40;;;1.30;;
14007;SDS011;61651;45.508;12.232;2023-07-31T14:20:46;1.70;;;1.60;;
14007;SDS011;61651;45.508;12.232;2023-07-31T14:23:47;3.05;;;1.92;;
14007;SDS011;61651;45.508;12.232;2023-07-31T14:26:51;1.63;;;1.52;;
14007;SDS011;61651;45.508;12.232;2023-07-31T14:29:53;1.55;;;1.45;;
14007;SDS011;61651;45.508;12.232;2023-07-31T14:32:55;1.73;;;1.60;;
14007;SDS011;61651;45.508;12.232;2023-07-31T14:35:57;1.98;;;1.60;;
14007;SDS011;61651;45.508;12.232;2023-07-31T14:38:59;1.55;;;1.45;;
14007;SDS011;61651;45.508;12.232;2023-07-31T14:42:03;1.58;;;1.48;;
14007;SDS011;61651;45.508;12.232;2023-07-31T14:45:06;1.70;;;1.60;;
14007;SDS011;61651;45.508;12.232;2023-07-31T14:48:10;1.90;;;1.55;;
14007;SDS011;61651;45.508;12.232;2023-07-31T14:51:12;2.33;;;1.63;;
14007;SDS011;61651;45.508;12.232;2023-07-31T14:54:14;1.95;;;1.77;;
14007;SDS011;61651;45.508;12.232;2023-07-31T14:57:18;1.90;;;1.75;;
14007;SDS011;61651;45.508;12.232;2023-07-31T15:00:20;5.43;;;2.38;;
14007;SDS011;61651;45.508;12.232;2023-07-31T15:03:24;2.35;;;1.80;;
14007;SDS011;61651;45.508;12.232;2023-07-31T15:06:26;1.90;;;1.80;;
14007;SDS011;61651;45.508;12.232;2023-07-31T15:09:28;1.67;;;1.58;;
14007;SDS011;61651;45.508;12.232;2023-07-31T15:12:31;1.70;;;1.60;;
14007;SDS011;61651;45.508;12.232;2023-07-31T15:15:34;2.30;;;1.80;;
14007;SDS011;61651;45.508;12.232;2023-07-31T15:18:35;1.65;;;1.52;;
14007;SDS011;61651;45.508;12.232;2023-07-31T15:21:37;1.70;;;1.60;;
14007;SDS011;61651;45.508;12.232;2023-07-31T15:24:40;2.33;;;1.65;;
14007;SDS011;61651;45.508;12.232;2023-07-31T15:27:43;2.80;;;1.70;;
14007;SDS011;61651;45.508;12.232;2023-07-31T15:30:45;2.85;;;1.40;;
14007;SDS011;61651;45.508;12.232;2023-07-31T15:33:47;3.17;;;1.85;;
14007;SDS011;61651;45.508;12.232;2023-07-31T15:36:49;2.40;;;1.80;;
14007;SDS011;61651;45.508;12.232;2023-07-31T15:39:52;2.58;;;1.70;;
14007;SDS011;61651;45.508;12.232;2023-07-31T15:42:55;1.80;;;1.50;;
14007;SDS011;61651;45.508;12.232;2023-07-31T15:45:57;2.67;;;1.48;;
14007;SDS011;61651;45.508;12.232;2023-07-31T15:48:59;2.00;;;1.60;;
14007;SDS011;61651;45.508;12.232;2023-07-31T15:52:01;2.05;;;1.65;;
14007;SDS011;61651;45.508;12.232;2023-07-31T15:55:04;4.30;;;1.55;;
14007;SDS011;61651;45.508;12.232;2023-07-31T15:58:08;1.90;;;1.80;;
14007;SDS011;61651;45.508;12.232;2023-07-31T16:01:10;1.60;;;1.50;;
14007;SDS011;61651;45.508;12.232;2023-07-31T16:04:12;1.83;;;1.67;;
14007;SDS011;61651;45.508;12.232;2023-07-31T16:07:14;2.72;;;1.85;;
14007;SDS011;61651;45.508;12.232;2023-07-31T16:10:16;1.77;;;1.60;;
14007;SDS011;61651;45.508;12.232;2023-07-31T16:13:19;2.30;;;1.77;;
14007;SDS011;61651;45.508;12.232;2023-07-31T16:16:21;2.35;;;1.67;;
14007;SDS011;61651;45.508;12.232;2023-07-31T16:19:23;1.60;;;1.50;;
14007;SDS011;61651;45.508;12.232;2023-07-31T16:22:25;2.38;;;1.60;;
14007;SDS011;61651;45.508;12.232;2023-07-31T16:25:28;1.80;;;1.70;;
14007;SDS011;61651;45.508;12.232;2023-07-31T16:28:31;3.88;;;3.25;;
14007;SDS011;61651;45.508;12.232;2023-07-31T16:31:33;2.65;;;1.90;;
14007;SDS011;61651;45.508;12.232;2023-07-31T16:34:35;2.63;;;2.20;;
14007;SDS011;61651;45.508;12.232;2023-07-31T16:37:37;2.58;;;1.85;;
14007;SDS011;61651;45.508;12.232;2023-07-31T16:40:40;2.85;;;1.77;;
14007;SDS011;61651;45.508;12.232;2023-07-31T16:43:43;2.00;;;1.90;;
14007;SDS011;61651;45.508;12.232;2023-07-31T16:46:45;1.92;;;1.83;;
14007;SDS011;61651;45.508;12.232;2023-07-31T16:49:47;4.50;;;3.08;;
14007;SDS011;61651;45.508;12.232;2023-07-31T16:52:49;3.10;;;2.45;;
14007;SDS011;61651;45.508;12.232;2023-07-31T16:55:51;3.75;;;3.00;;
14007;SDS011;61651;45.508;12.232;2023-07-31T16:58:54;3.20;;;2.20;;
14007;SDS011;61651;45.508;12.232;2023-07-31T17:01:56;3.42;;;2.42;;
14007;SDS011;61651;45.508;12.232;2023-07-31T17:04:58;3.45;;;3.03;;
14007;SDS011;61651;45.508;12.232;2023-07-31T17:08:00;2.40;;;2.20;;
14007;SDS011;61651;45.508;12.232;2023-07-31T17:11:02;2.63;;;2.42;;
14007;SDS011;61651;45.508;12.232;2023-07-31T17:14:06;2.47;;;2.28;;
14007;SDS011;61651;45.508;12.232;2023-07-31T17:17:08;2.20;;;2.00;;
14007;SDS011;61651;45.508;12.232;2023-07-31T17:20:11;6.65;;;2.17;;
14007;SDS011;61651;45.508;12.232;2023-07-31T17:23:13;2.30;;;2.10;;
14007;SDS011;61651;45.508;12.232;2023-07-31T17:26:15;4.15;;;3.17;;
14007;SDS011;61651;45.508;12.232;2023-07-31T17:29:18;2.70;;;2.50;;
14007;SDS011;61651;45.508;12.232;2023-07-31T17:32:20;2.92;;;2.67;;
14007;SDS011;61651;45.508;12.232;2023-07-31T17:35:22;2.95;;;2.28;;
14007;SDS011;61651;45.508;12.232;2023-07-31T17:38:24;3.13;;;2.50;;
14007;SDS011;61651;45.508;12.232;2023-07-31T17:41:26;3.55;;;2.60;;
14007;SDS011;61651;45.508;12.232;2023-07-31T17:44:30;3.25;;;1.58;;
14007;SDS011;61651;45.508;12.232;2023-07-31T17:47:32;2.40;;;1.88;;
14007;SDS011;61651;45.508;12.232;2023-07-31T17:50:35;2.13;;;1.80;;
14007;SDS011;61651;45.508;12.232;2023-07-31T17:53:37;3.00;;;2.20;;
14007;SDS011;61651;45.508;12.232;2023-07-31T17:56:39;2.35;;;2.15;;
14007;SDS011;61651;45.508;12.232;2023-07-31T17:59:42;3.05;;;2.70;;
14007;SDS011;61651;45.508;12.232;2023-07-31T18:02:45;3.03;;;2.72;;
14007;SDS011;61651;45.508;12.232;2023-07-31T18:05:47;3.80;;;2.30;;
14007;SDS011;61651;45.508;12.232;2023-07-31T18:08:49;3.80;;;3.15;;